createdAt,value
2022-09-25T00:02:55.427Z,15.62
2022-09-25T00:07:57.320Z,15.58
2022-09-25T00:12:59.646Z,15.63
2022-09-25T00:18:01.498Z,15.71
2022-09-25T00:23:03.408Z,15.78
2022-09-25T00:28:06.193Z,15.75
2022-09-25T00:33:07.989Z,15.71
2022-09-25T00:38:09.812Z,15.69
2022-09-25T00:43:33.158Z,15.66
2022-09-25T00:48:35.906Z,15.59
2022-09-25T00:53:40.954Z,15.62
2022-09-25T00:58:42.885Z,15.64
2022-09-25T01:03:46.466Z,15.59
2022-09-25T01:08:48.680Z,15.54
2022-09-25T01:13:55.105Z,15.52
2022-09-25T01:19:22.880Z,15.53
2022-09-25T01:24:43.273Z,15.54
2022-09-25T01:29:54.216Z,15.48
2022-09-25T01:34:58.919Z,15.40
2022-09-25T01:40:09.099Z,15.41
2022-09-25T01:45:20.878Z,15.45
2022-09-25T01:50:41.450Z,15.50
2022-09-25T01:55:49.222Z,15.50
2022-09-25T02:00:59.471Z,15.54
2022-09-25T02:06:05.375Z,15.41
2022-09-25T02:11:08.752Z,15.45
2022-09-25T02:16:16.444Z,15.53
2022-09-25T02:21:39.699Z,15.47
2022-09-25T02:26:41.727Z,15.45
2022-09-25T02:31:50.034Z,15.44
2022-09-25T02:36:51.959Z,15.52
2022-09-25T02:42:14.795Z,15.58
2022-09-25T02:47:28.903Z,15.60
2022-09-25T02:53:07.966Z,15.64
2022-09-25T02:58:16.976Z,15.65
2022-09-25T03:03:21.487Z,15.68
2022-09-25T03:08:39.631Z,15.78
2022-09-25T03:13:42.712Z,15.72
2022-09-25T03:18:44.805Z,15.72
2022-09-25T03:23:46.599Z,15.72
2022-09-25T03:28:48.509Z,15.69
2022-09-25T03:33:50.319Z,15.66
2022-09-25T03:38:57.892Z,15.61
2022-09-25T03:44:01.167Z,15.63
2022-09-25T03:49:04.274Z,15.69
2022-09-25T03:54:06.333Z,15.77
2022-09-25T03:59:08.214Z,15.82
2022-09-25T04:04:10.104Z,15.85
2022-09-25T04:09:11.939Z,15.82
2022-09-25T04:14:14.835Z,15.82
2022-09-25T04:19:17.076Z,15.80
2022-09-25T04:24:37.273Z,15.83
2022-09-25T04:29:39.165Z,15.85
2022-09-25T04:34:40.960Z,15.84
2022-09-25T04:39:42.767Z,15.83
2022-09-25T04:44:44.562Z,15.85
2022-09-25T04:49:46.495Z,15.83
2022-09-25T04:54:48.604Z,15.78
2022-09-25T04:59:51.110Z,15.75
2022-09-25T05:04:52.937Z,15.64
2022-09-25T05:09:54.792Z,15.63
2022-09-25T05:14:56.574Z,15.69
2022-09-25T05:19:58.402Z,15.75
2022-09-25T05:25:00.210Z,15.76
2022-09-25T05:30:02.503Z,15.79
2022-09-25T05:35:05.749Z,15.84
2022-09-25T05:40:08.361Z,15.88
2022-09-25T05:45:12.088Z,15.92
2022-09-25T05:50:16.739Z,15.90
2022-09-25T05:55:18.606Z,15.84
2022-09-25T06:00:20.773Z,15.85
2022-09-25T06:05:22.754Z,15.90
2022-09-25T06:10:28.210Z,15.99
2022-09-25T06:15:35.932Z,16.08
2022-09-25T06:20:38.166Z,16.14
2022-09-25T06:25:41.227Z,16.22
2022-09-25T06:30:43.062Z,16.29
2022-09-25T06:35:47.236Z,16.36
2022-09-25T06:40:49.094Z,16.43
2022-09-25T06:45:51.612Z,16.47
2022-09-25T06:50:55.931Z,16.59
2022-09-25T06:56:00.052Z,16.68
2022-09-25T07:01:06.301Z,16.76
2022-09-25T07:06:20.789Z,16.79
2022-09-25T07:11:24.802Z,16.83
2022-09-25T07:16:30.002Z,16.93
2022-09-25T07:21:32.550Z,17.00
2022-09-25T07:26:34.722Z,17.05
2022-09-25T07:31:38.158Z,17.02
2022-09-25T07:36:41.281Z,17.04
2022-09-25T07:41:43.108Z,17.08
2022-09-25T07:46:46.399Z,17.16
2022-09-25T07:51:48.416Z,17.26
2022-09-25T07:56:50.323Z,17.41
2022-09-25T08:01:54.153Z,17.57
2022-09-25T08:06:59.276Z,17.70
2022-09-25T08:12:01.265Z,17.79
2022-09-25T08:17:03.105Z,17.90
2022-09-25T08:22:04.935Z,17.91
2022-09-25T08:27:07.892Z,17.89
2022-09-25T08:32:09.780Z,18.01
2022-09-25T08:37:11.645Z,18.21
2022-09-25T08:42:22.342Z,18.39
2022-09-25T08:47:44.401Z,18.49
2022-09-25T08:52:49.865Z,18.74
2022-09-25T08:57:55.223Z,19.02
2022-09-25T09:02:59.036Z,19.28
2022-09-25T09:08:14.909Z,19.46
2022-09-25T09:13:25.763Z,19.54
2022-09-25T09:18:32.870Z,19.74
2022-09-25T09:23:47.029Z,20.08
2022-09-25T09:29:17.514Z,20.28
2022-09-25T09:35:04.159Z,20.47
2022-09-25T09:40:25.652Z,20.63
2022-09-25T09:45:48.631Z,20.75
2022-09-25T09:50:53.508Z,20.97
2022-09-25T09:56:01.547Z,21.21
2022-09-25T10:01:22.118Z,21.37
2022-09-25T10:06:30.784Z,21.58
2022-09-25T10:11:33.961Z,21.74
2022-09-25T10:16:36.759Z,21.93
2022-09-25T10:21:49.766Z,22.07
2022-09-25T10:26:51.606Z,22.22
2022-09-25T10:32:05.789Z,22.25
2022-09-25T10:37:21.212Z,22.28
2022-09-25T10:42:41.897Z,22.39
2022-09-25T10:48:03.844Z,22.42
2022-09-25T10:53:07.627Z,22.40
2022-09-25T10:58:20.260Z,22.55
2022-09-25T11:03:25.658Z,22.76
2022-09-25T11:08:32.371Z,22.82
2022-09-25T11:13:39.090Z,22.88
2022-09-25T11:19:11.378Z,22.88
2022-09-25T11:24:25.389Z,22.89
2022-09-25T11:30:00.699Z,22.96
2022-09-25T11:35:20.450Z,23.03
2022-09-25T11:41:09.189Z,23.16
2022-09-25T11:46:24.966Z,23.22
2022-09-25T11:52:05.321Z,23.41
2022-09-25T11:57:16.747Z,23.49
2022-09-25T12:02:50.978Z,23.73
2022-09-25T12:08:06.574Z,23.95
2022-09-25T12:13:22.013Z,23.93
2022-09-25T12:18:40.387Z,23.94
2022-09-25T12:24:00.201Z,24.00
2022-09-25T12:29:14.005Z,24.09
2022-09-25T12:34:27.984Z,24.17
2022-09-25T12:39:43.681Z,24.29
2022-09-25T12:45:03.288Z,24.59
2022-09-25T12:50:21.456Z,24.75
2022-09-25T12:55:31.593Z,24.65
2022-09-25T13:00:39.543Z,24.41
2022-09-25T13:06:03.638Z,24.52
2022-09-25T13:11:57.446Z,24.59
2022-09-25T13:17:01.290Z,24.78
2022-09-25T13:22:07.622Z,24.71
2022-09-25T13:27:15.616Z,24.61
2022-09-25T13:32:19.139Z,24.55
2022-09-25T13:37:35.759Z,24.72
2022-09-25T13:42:41.048Z,24.86
2022-09-25T13:47:50.514Z,24.92
2022-09-25T13:53:23.088Z,24.65
2022-09-25T13:58:27.601Z,24.56
2022-09-25T14:03:44.629Z,24.15
2022-09-25T14:08:48.141Z,23.97
2022-09-25T14:13:52.643Z,23.90
2022-09-25T14:18:58.292Z,23.74
2022-09-25T14:24:20.274Z,23.60
2022-09-25T14:29:29.751Z,23.39
2022-09-25T14:34:50.119Z,23.40
2022-09-25T14:40:03.824Z,23.35
2022-09-25T14:45:37.289Z,23.33
2022-09-25T14:50:46.574Z,23.18
2022-09-25T14:55:53.080Z,22.64
2022-09-25T15:01:10.783Z,22.24
2022-09-25T15:06:16.345Z,22.28
2022-09-25T15:11:21.321Z,22.35
2022-09-25T15:16:44.545Z,22.28
2022-09-25T15:21:47.218Z,22.11
2022-09-25T15:26:56.564Z,22.10
2022-09-25T15:31:58.662Z,22.09
2022-09-25T15:37:13.328Z,22.04
2022-09-25T15:42:15.500Z,21.93
2022-09-25T15:47:35.746Z,21.90
2022-09-25T15:52:38.464Z,21.55
2022-09-25T15:57:41.115Z,21.09
2022-09-25T16:03:14.231Z,21.01
2022-09-25T16:08:32.677Z,21.05
2022-09-25T16:13:38.305Z,21.13
2022-09-25T16:18:40.774Z,21.10
2022-09-25T16:23:43.941Z,21.04
2022-09-25T16:29:11.896Z,20.97
2022-09-25T16:34:32.858Z,20.76
2022-09-25T16:39:37.908Z,20.49
2022-09-25T16:44:47.152Z,20.01
2022-09-25T16:49:49.525Z,19.98
2022-09-25T16:54:54.727Z,20.03
2022-09-25T16:59:56.648Z,19.88
2022-09-25T17:05:01.157Z,19.69
2022-09-25T17:10:03.346Z,19.58
2022-09-25T17:15:07.199Z,19.68
2022-09-25T17:20:11.371Z,19.76
2022-09-25T17:25:22.120Z,19.78
2022-09-25T17:30:24.010Z,19.58
2022-09-25T17:35:38.095Z,19.35
2022-09-25T17:40:44.714Z,19.07
2022-09-25T17:45:54.618Z,18.85
2022-09-25T17:50:59.495Z,18.71
2022-09-25T17:56:02.320Z,18.58
2022-09-25T18:01:15.084Z,18.43
2022-09-25T18:06:17.174Z,18.22
2022-09-25T18:11:19.313Z,17.99
2022-09-25T18:16:26.114Z,17.80
2022-09-25T18:21:46.558Z,17.64
2022-09-25T18:26:49.125Z,17.66
2022-09-25T18:31:52.070Z,17.72
2022-09-25T18:36:54.183Z,17.78
2022-09-25T18:41:56.443Z,17.61
2022-09-25T18:46:58.912Z,17.41
2022-09-25T18:52:00.911Z,17.42
2022-09-25T18:57:02.982Z,17.42
2022-09-25T19:02:06.504Z,17.37
2022-09-25T19:07:08.441Z,17.25
2022-09-25T19:12:15.398Z,17.24
2022-09-25T19:17:18.991Z,17.29
2022-09-25T19:22:21.447Z,17.30
2022-09-25T19:27:25.538Z,17.15
2022-09-25T19:32:28.669Z,17.05
2022-09-25T19:37:33.060Z,17.04
2022-09-25T19:42:37.803Z,17.04
2022-09-25T19:47:39.908Z,17.01
2022-09-25T19:52:41.853Z,17.01
2022-09-25T19:57:44.209Z,17.07
2022-09-25T20:02:47.427Z,17.14
2022-09-25T20:07:49.836Z,17.20
2022-09-25T20:12:51.660Z,17.30
2022-09-25T20:17:56.458Z,17.34
2022-09-25T20:22:59.124Z,17.39
2022-09-25T20:28:01.296Z,17.42
2022-09-25T20:33:04.900Z,17.43
2022-09-25T20:38:11.011Z,17.45
2022-09-25T20:43:12.926Z,17.48
2022-09-25T20:48:18.149Z,17.44
2022-09-25T20:53:19.990Z,17.45
2022-09-25T20:58:21.866Z,17.47
2022-09-25T21:03:23.666Z,17.44
2022-09-25T21:08:27.377Z,17.35
2022-09-25T21:13:30.389Z,17.19
2022-09-25T21:18:35.358Z,17.09
2022-09-25T21:23:37.650Z,17.01
2022-09-25T21:28:45.194Z,17.05
2022-09-25T21:33:47.704Z,17.18
2022-09-25T21:38:50.130Z,17.18
2022-09-25T21:43:57.353Z,17.12
2022-09-25T21:49:02.016Z,17.00
2022-09-25T21:54:05.770Z,17.04
2022-09-25T21:59:09.337Z,17.02
2022-09-25T22:04:13.380Z,17.06
2022-09-25T22:09:23.473Z,17.09
2022-09-25T22:14:25.346Z,17.08
2022-09-25T22:19:29.808Z,17.03
2022-09-25T22:24:31.735Z,17.08
2022-09-25T22:29:35.837Z,16.99
2022-09-25T22:34:37.649Z,16.83
2022-09-25T22:39:39.445Z,16.80
2022-09-25T22:44:41.223Z,16.70
2022-09-25T22:49:43.005Z,16.62
2022-09-25T22:54:44.816Z,16.79
2022-09-25T22:59:46.596Z,16.84
2022-09-25T23:04:52.172Z,16.91
2022-09-25T23:10:18.148Z,16.84
2022-09-25T23:15:20.039Z,16.77
2022-09-25T23:20:21.925Z,16.77
2022-09-25T23:25:23.840Z,16.77
2022-09-25T23:30:26.021Z,16.74
2022-09-25T23:35:27.945Z,16.62
2022-09-25T23:40:29.781Z,16.63
2022-09-25T23:45:31.701Z,16.64
2022-09-25T23:50:33.545Z,16.64
2022-09-25T23:55:44.204Z,16.60
